Time;durP1;ratioP1;P1;durP2;ratioP2;P2;SDS_P1;SDS_P2;PMS_P1;PMS_P2;Temp;Humidity;BMP_temperature;BMP_pressure;BME280_temperature;BME280_humidity;BME280_pressure;Samples;Min_cycle;Max_cycle;Signal;HPM_P1;HPM_P2
2021/01/11 00:00:00;;;;;;;;;;;3.60;99.90;;;;;;5135271;27;19911;-88
2021/01/11 00:02:46;;;;;;;;;;;3.60;99.90;;;;;;5134029;27;19930;-87
2021/01/11 00:05:17;;;;;;;;;;;3.60;99.90;;;;;;5130688;27;20005;-87
2021/01/11 00:07:46;;;;;;;;;;;3.60;99.90;;;;;;5117488;27;20006;-86
2021/01/11 00:10:14;;;;;;;;;;;3.60;99.90;;;;;;5135995;27;19914;-88
2021/01/11 00:12:44;;;;;;;;;;;3.60;99.90;;;;;;5117405;28;19911;-87
2021/01/11 00:15:15;;;;;;;;;;;3.60;99.90;;;;;;5114039;27;19915;-88
2021/01/11 00:17:44;;;;;;;;;;;3.60;99.90;;;;;;5132355;27;20430;-87
2021/01/11 00:20:13;;;;;;;;;;;3.60;99.90;;;;;;5117703;27;19911;-87
2021/01/11 00:22:42;;;;;;;;;;;3.60;99.90;;;;;;5113369;28;19912;-88
2021/01/11 00:25:13;;;;;;;;;;;3.60;99.90;;;;;;5117862;28;20363;-88
2021/01/11 00:27:42;;;;;;;;;;;3.60;99.90;;;;;;5117483;28;20314;-88
2021/01/11 00:30:11;;;;;;;;;;;3.60;99.90;;;;;;5112294;28;19911;-87
2021/01/11 00:32:40;;;;;;;;;;;3.60;99.90;;;;;;5117293;28;19908;-88
2021/01/11 00:35:08;;;;;;;;;;;3.60;99.90;;;;;;5115569;27;19908;-89
2021/01/11 00:37:34;;;;;;;;;;;3.60;99.90;;;;;;5119973;27;19946;-88
2021/01/11 00:40:03;;;;;;;;;;;3.60;99.90;;;;;;5121095;27;19907;-88
2021/01/11 00:42:31;;;;;;;;;;;3.60;99.90;;;;;;5121492;27;19911;-88
2021/01/11 00:45:00;;;;;;;;;;;3.60;99.90;;;;;;5121189;27;19908;-88
2021/01/11 00:47:39;;;;;;;;;;;3.60;99.90;;;;;;5116179;27;19908;-91
2021/01/11 00:50:13;;;;;;;;;;;3.60;99.90;;;;;;5115408;27;19954;-88
2021/01/11 00:52:48;;;;;;;;;;;3.60;99.90;;;;;;5139190;27;20011;-88
2021/01/11 00:55:16;;;;;;;;;;;3.60;99.90;;;;;;5118117;27;19911;-88
2021/01/11 00:57:49;;;;;;;;;;;3.60;99.90;;;;;;5120739;27;19911;-88
2021/01/11 01:00:19;;;;;;;;;;;3.60;99.90;;;;;;5116482;27;19960;-88
2021/01/11 01:02:45;;;;;;;;;;;3.60;99.90;;;;;;5122802;27;19986;-88
2021/01/11 01:05:12;;;;;;;;;;;3.60;99.90;;;;;;5120301;27;20015;-87
2021/01/11 01:07:46;;;;;;;;;;;3.60;99.90;;;;;;5120936;27;19908;-88
2021/01/11 01:10:14;;;;;;;;;;;3.60;99.90;;;;;;5134380;27;19949;-88
2021/01/11 01:12:40;;;;;;;;;;;3.60;99.90;;;;;;5117542;27;19919;-88
2021/01/11 01:15:08;;;;;;;;;;;3.60;99.90;;;;;;5115619;27;20409;-88
2021/01/11 01:17:48;;;;;;;;;;;3.60;99.90;;;;;;5132575;27;20074;-87
2021/01/11 01:20:20;;;;;;;;;;;3.60;99.90;;;;;;5118148;27;19908;-88
2021/01/11 01:22:46;;;;;;;;;;;3.60;99.90;;;;;;5116566;27;20328;-87
2021/01/11 01:25:15;;;;;;;;;;;3.50;99.90;;;;;;5120364;27;19964;-87
2021/01/11 01:27:44;;;;;;;;;;;3.50;99.90;;;;;;5119957;27;19911;-87
2021/01/11 01:30:15;;;;;;;;;;;3.50;99.90;;;;;;5120336;27;19911;-88
2021/01/11 01:32:48;;;;;;;;;;;3.50;99.90;;;;;;5119360;27;21339;-88
2021/01/11 01:35:20;;;;;;;;;;;3.50;99.90;;;;;;5120053;27;19911;-88
2021/01/11 01:37:51;;;;;;;;;;;3.50;99.90;;;;;;5119901;27;20378;-88
2021/01/11 01:40:20;;;;;;;;;;;3.50;99.90;;;;;;5115733;27;19919;-88
2021/01/11 01:42:45;;;;;;;;;;;3.50;99.90;;;;;;5119871;27;19953;-88
2021/01/11 01:45:14;;;;;;;;;;;3.50;99.90;;;;;;5115250;27;20271;-88
2021/01/11 01:47:45;;;;;;;;;;;3.50;99.90;;;;;;5120202;27;19946;-88
2021/01/11 01:50:14;;;;;;;;;;;3.50;99.90;;;;;;5134884;27;19998;-89
2021/01/11 01:52:44;;;;;;;;;;;3.50;99.90;;;;;;5119260;27;19911;-88
2021/01/11 01:55:18;;;;;;;;;;;3.50;99.90;;;;;;5119830;27;19907;-88
2021/01/11 01:57:47;;;;;;;;;;;3.50;99.90;;;;;;5119660;27;19959;-88
2021/01/11 02:00:23;;;;;;;;;;;3.50;99.90;;;;;;5114770;27;19912;-87
2021/01/11 02:02:51;;;;;;;;;;;3.50;99.90;;;;;;5116111;27;19912;-89
2021/01/11 02:05:21;;;;;;;;;;;3.50;99.90;;;;;;5119523;27;19914;-87
2021/01/11 02:07:57;;;;;;;;;;;3.50;99.90;;;;;;5119913;27;19929;-88
2021/01/11 02:10:42;;;;;;;;;;;3.50;99.90;;;;;;5119714;27;19963;-87
2021/01/11 02:13:24;;;;;;;;;;;3.50;99.90;;;;;;5119745;27;19908;-87
2021/01/11 02:15:54;;;;;;;;;;;3.50;99.90;;;;;;5120576;27;19908;-88
2021/01/11 02:18:29;;;;;;;;;;;3.50;99.90;;;;;;5120146;27;19915;-88
2021/01/11 02:21:01;;;;;;;;;;;3.50;99.90;;;;;;5115664;27;19908;-87
2021/01/11 02:23:39;;;;;;;;;;;3.50;99.90;;;;;;5119626;27;19914;-88
2021/01/11 02:26:13;;;;;;;;;;;3.40;99.90;;;;;;5137277;27;20002;-88
2021/01/11 02:28:55;;;;;;;;;;;3.40;99.90;;;;;;5118760;27;19911;-88
2021/01/11 02:31:25;;;;;;;;;;;3.40;99.90;;;;;;5132544;27;20336;-87
2021/01/11 02:33:52;;;;;;;;;;;3.40;99.90;;;;;;5113971;27;19908;-88
2021/01/11 02:36:18;;;;;;;;;;;3.40;99.90;;;;;;5119507;27;19994;-88
2021/01/11 02:38:44;;;;;;;;;;;3.40;99.90;;;;;;5118514;27;19919;-87
2021/01/11 02:41:10;;;;;;;;;;;3.40;99.90;;;;;;5114357;27;19930;-88
2021/01/11 02:43:44;;;;;;;;;;;3.30;99.90;;;;;;5120492;27;19937;-88
2021/01/11 02:46:13;;;;;;;;;;;3.30;99.90;;;;;;5114611;27;19918;-87
2021/01/11 02:48:58;;;;;;;;;;;3.30;99.90;;;;;;5137309;27;19966;-88
2021/01/11 02:51:37;;;;;;;;;;;3.30;99.90;;;;;;5119797;27;19930;-88
2021/01/11 02:54:09;;;;;;;;;;;3.30;99.90;;;;;;5118982;27;20360;-88
2021/01/11 02:56:40;;;;;;;;;;;3.30;99.90;;;;;;5118780;27;20348;-88
2021/01/11 02:59:29;;;;;;;;;;;3.20;99.90;;;;;;5118575;27;19964;-88
2021/01/11 03:02:04;;;;;;;;;;;3.20;99.90;;;;;;5105593;27;19950;-88
2021/01/11 03:04:40;;;;;;;;;;;3.20;99.90;;;;;;5118880;27;20007;-88
2021/01/11 03:07:07;;;;;;;;;;;3.20;99.90;;;;;;5118607;27;19994;-87
2021/01/11 03:09:43;;;;;;;;;;;3.20;99.90;;;;;;5132672;27;19911;-89
2021/01/11 03:12:13;;;;;;;;;;;3.20;99.90;;;;;;5118663;27;19908;-88
2021/01/11 03:14:38;;;;;;;;;;;3.20;99.90;;;;;;5137222;27;19908;-88
2021/01/11 03:17:07;;;;;;;;;;;3.20;99.90;;;;;;5131816;27;19908;-87
2021/01/11 03:19:37;;;;;;;;;;;3.20;99.90;;;;;;5113497;27;19924;-88
2021/01/11 03:22:08;;;;;;;;;;;3.20;99.90;;;;;;5117967;27;19908;-87
2021/01/11 03:24:34;;;;;;;;;;;3.20;99.90;;;;;;5133712;27;19911;-89
2021/01/11 03:27:06;;;;;;;;;;;3.20;99.90;;;;;;5118276;27;19969;-88
2021/01/11 03:29:31;;;;;;;;;;;3.20;99.90;;;;;;5115185;27;19915;-88
2021/01/11 03:32:00;;;;;;;;;;;3.20;99.90;;;;;;5117746;27;19911;-88
2021/01/11 03:34:28;;;;;;;;;;;3.10;99.90;;;;;;5117787;27;19967;-88
2021/01/11 03:36:54;;;;;;;;;;;3.10;99.90;;;;;;5052408;28;19955;-87
2021/01/11 03:39:34;;;;;;;;;;;3.10;99.90;;;;;;5035488;28;19955;-88
2021/01/11 03:42:05;;;;;;;;;;;3.10;99.90;;;;;;5036404;28;19979;-88
2021/01/11 03:44:33;;;;;;;;;;;3.00;99.90;;;;;;5052070;28;20008;-88
2021/01/11 03:47:05;;;;;;;;;;;3.00;99.90;;;;;;5052945;28;19913;-88
2021/01/11 03:49:31;;;;;;;;;;;3.00;99.90;;;;;;5035743;28;20268;-88
2021/01/11 03:52:00;;;;;;;;;;;3.00;99.90;;;;;;5052577;28;20003;-87
2021/01/11 03:54:29;;;;;;;;;;;3.00;99.90;;;;;;5050388;28;20386;-89
2021/01/11 03:56:55;;;;;;;;;;;3.00;99.90;;;;;;5036209;28;20366;-88
2021/01/11 03:59:25;;;;;;;;;;;3.00;99.90;;;;;;5036051;28;19963;-87
2021/01/11 04:01:52;;;;;;;;;;;3.00;99.90;;;;;;5052477;28;20293;-87
2021/01/11 04:04:20;;;;;;;;;;;3.00;99.90;;;;;;5052816;28;19913;-87
2021/01/11 04:06:53;;;;;;;;;;;3.00;99.90;;;;;;5053966;28;19999;-87
2021/01/11 04:09:19;;;;;;;;;;;2.90;99.90;;;;;;5095434;28;19912;-86
2021/01/11 04:11:44;;;;;;;;;;;2.90;99.90;;;;;;5097349;28;19915;-87
2021/01/11 04:14:23;;;;;;;;;;;2.90;99.90;;;;;;5095520;28;20003;-86
2021/01/11 04:17:05;;;;;;;;;;;2.90;99.90;;;;;;5097466;28;20002;-86
2021/01/11 04:19:33;;;;;;;;;;;2.80;99.90;;;;;;5096838;28;19916;-86
2021/01/11 04:21:58;;;;;;;;;;;2.80;99.90;;;;;;5100304;28;19911;-86
2021/01/11 04:24:43;;;;;;;;;;;2.80;99.90;;;;;;5098113;28;19908;-86
2021/01/11 04:27:14;;;;;;;;;;;2.80;99.90;;;;;;5113824;28;20019;-86
2021/01/11 04:29:45;;;;;;;;;;;2.70;99.90;;;;;;5096807;28;19909;-87
2021/01/11 04:32:14;;;;;;;;;;;2.70;99.90;;;;;;5097494;28;19915;-86
2021/01/11 04:34:47;;;;;;;;;;;2.70;99.90;;;;;;5092959;28;20355;-87
2021/01/11 04:37:19;;;;;;;;;;;2.70;99.90;;;;;;5090095;28;19912;-87
2021/01/11 04:39:44;;;;;;;;;;;2.60;99.90;;;;;;5086794;28;19962;-87
2021/01/11 04:42:11;;;;;;;;;;;2.60;99.90;;;;;;5091208;28;20360;-87
2021/01/11 04:44:40;;;;;;;;;;;2.60;99.90;;;;;;5090766;28;19908;-86
2021/01/11 04:47:12;;;;;;;;;;;2.60;99.90;;;;;;5095800;28;20268;-87
2021/01/11 04:49:39;;;;;;;;;;;2.60;99.90;;;;;;5091327;28;19959;-87
2021/01/11 04:52:10;;;;;;;;;;;2.50;99.90;;;;;;5095056;28;19908;-87
2021/01/11 04:54:39;;;;;;;;;;;2.50;99.90;;;;;;5096036;28;20368;-86
2021/01/11 04:57:09;;;;;;;;;;;2.50;99.90;;;;;;5034976;28;19909;-87
2021/01/11 04:59:36;;;;;;;;;;;2.50;99.90;;;;;;5047536;28;19959;-86
2021/01/11 05:02:02;;;;;;;;;;;2.50;99.90;;;;;;5051854;28;19959;-87
2021/01/11 05:04:28;;;;;;;;;;;2.50;99.90;;;;;;5047182;28;19909;-86
2021/01/11 05:07:01;;;;;;;;;;;2.50;99.90;;;;;;5071820;28;19916;-87
2021/01/11 05:09:27;;;;;;;;;;;2.50;99.90;;;;;;5032180;28;20417;-86
2021/01/11 05:12:02;;;;;;;;;;;2.50;99.90;;;;;;5032150;28;19909;-87
2021/01/11 05:14:31;;;;;;;;;;;2.60;99.90;;;;;;5032130;28;19913;-86
2021/01/11 05:17:03;;;;;;;;;;;2.50;99.90;;;;;;5031643;28;19909;-87
2021/01/11 05:19:31;;;;;;;;;;;2.50;99.90;;;;;;5032075;28;20548;-87
2021/01/11 05:21:59;;;;;;;;;;;2.50;99.90;;;;;;5034433;28;19910;-86
2021/01/11 05:24:28;;;;;;;;;;;2.50;99.90;;;;;;5035363;28;20374;-86
2021/01/11 05:26:59;;;;;;;;;;;2.60;99.90;;;;;;5035103;28;19909;-87
2021/01/11 05:29:24;;;;;;;;;;;2.60;99.90;;;;;;5035458;28;20071;-86
2021/01/11 05:31:54;;;;;;;;;;;2.50;99.90;;;;;;5034751;28;20912;-87
2021/01/11 05:34:22;;;;;;;;;;;2.50;99.90;;;;;;5056285;28;19915;-86
2021/01/11 05:36:51;;;;;;;;;;;2.60;99.90;;;;;;5074103;28;20387;-86
2021/01/11 05:39:23;;;;;;;;;;;2.50;99.90;;;;;;5089466;28;20304;-87
2021/01/11 05:41:54;;;;;;;;;;;2.50;99.90;;;;;;5116723;28;19911;-86
2021/01/11 05:44:29;;;;;;;;;;;2.60;99.90;;;;;;5115918;28;19961;-86
2021/01/11 05:47:00;;;;;;;;;;;2.60;99.90;;;;;;5118392;28;19908;-86
2021/01/11 05:49:33;;;;;;;;;;;2.60;99.90;;;;;;5118034;28;19908;-86
2021/01/11 05:52:14;;;;;;;;;;;2.60;99.90;;;;;;5113118;28;20283;-86
2021/01/11 05:54:40;;;;;;;;;;;2.60;99.90;;;;;;5115959;28;20318;-87
2021/01/11 05:57:23;;;;;;;;;;;2.60;99.90;;;;;;5117663;28;19915;-86
2021/01/11 05:59:52;;;;;;;;;;;2.60;99.90;;;;;;5109181;28;20367;-86
2021/01/11 06:02:26;;;;;;;;;;;2.60;99.90;;;;;;5116525;28;19956;-86
2021/01/11 06:05:02;;;;;;;;;;;2.70;99.90;;;;;;5118797;28;20438;-88
2021/01/11 06:07:42;;;;;;;;;;;2.60;99.90;;;;;;5116751;28;19933;-87
2021/01/11 06:10:08;;;;;;;;;;;2.70;99.90;;;;;;5129707;27;19907;-86
2021/01/11 06:12:33;;;;;;;;;;;2.70;99.90;;;;;;5136436;27;20279;-87
2021/01/11 06:14:59;;;;;;;;;;;2.70;99.90;;;;;;5136717;27;19919;-86
2021/01/11 06:17:25;;;;;;;;;;;2.70;99.90;;;;;;5130681;27;19959;-86
2021/01/11 06:19:50;;;;;;;;;;;2.80;99.90;;;;;;5136003;27;20013;-86
2021/01/11 06:22:18;;;;;;;;;;;2.80;99.90;;;;;;5131024;27;19929;-87
2021/01/11 06:24:44;;;;;;;;;;;2.80;99.90;;;;;;5136376;27;19996;-87
2021/01/11 06:27:16;;;;;;;;;;;2.80;99.90;;;;;;5135380;27;19951;-86
2021/01/11 06:29:50;;;;;;;;;;;2.80;99.90;;;;;;5136269;27;19908;-87
2021/01/11 06:32:21;;;;;;;;;;;2.80;99.90;;;;;;5126819;27;19908;-86
2021/01/11 06:34:53;;;;;;;;;;;2.90;99.90;;;;;;5126491;27;19916;-87
2021/01/11 06:37:24;;;;;;;;;;;2.90;99.90;;;;;;5135617;27;19983;-87
2021/01/11 06:39:50;;;;;;;;;;;2.90;99.90;;;;;;5104872;28;19923;-87
2021/01/11 06:42:23;;;;;;;;;;;2.90;99.90;;;;;;5098447;28;19907;-87
2021/01/11 06:44:52;;;;;;;;;;;2.90;99.90;;;;;;5091201;28;19914;-86
2021/01/11 06:47:36;;;;;;;;;;;2.90;99.90;;;;;;5098212;28;19908;-87
2021/01/11 06:50:08;;;;;;;;;;;2.90;99.90;;;;;;5122284;27;19953;-87
2021/01/11 06:52:42;;;;;;;;;;;2.90;99.90;;;;;;5137574;27;19969;-87
2021/01/11 06:55:17;;;;;;;;;;;2.90;99.90;;;;;;5114776;27;19908;-86
2021/01/11 06:57:56;;;;;;;;;;;2.90;99.90;;;;;;5137114;27;19938;-87
2021/01/11 07:00:28;;;;;;;;;;;2.90;99.90;;;;;;5137227;27;19962;-87
2021/01/11 07:02:55;;;;;;;;;;;2.90;99.90;;;;;;5119166;27;19907;-86
2021/01/11 07:05:48;;;;;;;;;;;3.00;99.90;;;;;;5117827;27;19919;-86
2021/01/11 07:08:24;;;;;;;;;;;2.90;99.90;;;;;;5116331;27;19907;-87
2021/01/11 07:11:02;;;;;;;;;;;2.90;99.90;;;;;;5115335;27;19911;-86
2021/01/11 07:13:45;;;;;;;;;;;2.90;99.90;;;;;;5133506;27;19907;-86
2021/01/11 07:16:17;;;;;;;;;;;2.90;99.90;;;;;;5114593;27;19911;-88
2021/01/11 07:18:48;;;;;;;;;;;2.90;99.90;;;;;;5129830;27;20356;-86
2021/01/11 07:21:20;;;;;;;;;;;2.90;99.90;;;;;;5105281;28;19912;-86
2021/01/11 07:23:50;;;;;;;;;;;3.00;99.90;;;;;;5105687;27;19912;-86
2021/01/11 07:26:20;;;;;;;;;;;2.90;99.90;;;;;;5129011;27;20376;-88
2021/01/11 07:29:01;;;;;;;;;;;2.90;99.90;;;;;;5135786;27;19914;-90
2021/01/11 07:31:54;;;;;;;;;;;3.00;99.90;;;;;;5136032;27;19907;-87
2021/01/11 07:34:21;;;;;;;;;;;3.00;99.90;;;;;;5115595;27;20383;-87
2021/01/11 07:36:56;;;;;;;;;;;3.00;99.90;;;;;;5112000;27;19908;-86
2021/01/11 07:39:28;;;;;;;;;;;3.00;99.90;;;;;;5137160;27;19920;-85
2021/01/11 07:42:00;;;;;;;;;;;3.00;99.90;;;;;;5119231;27;19912;-86
2021/01/11 07:44:34;;;;;;;;;;;3.00;99.90;;;;;;5144408;27;19918;-87
2021/01/11 07:47:11;;;;;;;;;;;3.00;99.90;;;;;;5117395;27;19958;-87
2021/01/11 07:49:48;;;;;;;;;;;3.00;99.90;;;;;;5117881;27;19912;-86
2021/01/11 07:52:29;;;;;;;;;;;3.00;99.90;;;;;;5117460;27;19908;-86
2021/01/11 07:55:12;;;;;;;;;;;3.00;99.90;;;;;;5135262;27;20002;-87
2021/01/11 07:57:49;;;;;;;;;;;3.00;99.90;;;;;;5127518;27;20286;-86
2021/01/11 08:00:20;;;;;;;;;;;3.00;99.90;;;;;;5156446;27;20013;-86
2021/01/11 08:02:52;;;;;;;;;;;3.00;99.90;;;;;;5135392;27;19954;-87
2021/01/11 08:05:24;;;;;;;;;;;3.10;99.90;;;;;;5117997;27;19915;-88
2021/01/11 08:07:54;;;;;;;;;;;3.10;99.90;;;;;;5117848;27;19911;-88
2021/01/11 08:10:25;;;;;;;;;;;3.10;99.90;;;;;;5117191;27;19998;-88
2021/01/11 08:12:57;;;;;;;;;;;3.10;99.90;;;;;;5117429;27;19914;-88
2021/01/11 08:15:43;;;;;;;;;;;3.10;99.90;;;;;;5101280;28;19947;-87
2021/01/11 08:18:12;;;;;;;;;;;3.10;99.90;;;;;;5116219;27;20017;-87
2021/01/11 08:20:42;;;;;;;;;;;3.20;99.90;;;;;;5131010;27;19996;-85
2021/01/11 08:23:13;;;;;;;;;;;3.20;99.90;;;;;;5127273;27;19911;-86
2021/01/11 08:25:42;;;;;;;;;;;3.20;99.90;;;;;;5137576;27;19911;-86
2021/01/11 08:28:13;;;;;;;;;;;3.20;99.90;;;;;;5137634;27;19914;-86
2021/01/11 08:30:51;;;;;;;;;;;3.20;99.90;;;;;;5137536;27;20076;-86
2021/01/11 08:33:20;;;;;;;;;;;3.20;99.90;;;;;;5154999;27;19919;-87
2021/01/11 08:35:51;;;;;;;;;;;3.20;99.90;;;;;;5135435;27;19956;-87
2021/01/11 08:38:25;;;;;;;;;;;3.20;99.90;;;;;;5142862;27;19920;-87
2021/01/11 08:40:53;;;;;;;;;;;3.20;99.90;;;;;;5113766;28;19970;-87
2021/01/11 08:43:25;;;;;;;;;;;3.20;99.90;;;;;;5113951;28;20002;-86
2021/01/11 08:45:56;;;;;;;;;;;3.30;99.90;;;;;;5124239;28;19939;-87
2021/01/11 08:48:35;;;;;;;;;;;3.30;99.90;;;;;;5130651;28;20002;-86
2021/01/11 08:51:23;;;;;;;;;;;3.30;99.90;;;;;;5134342;28;19908;-87
2021/01/11 08:53:53;;;;;;;;;;;3.30;99.90;;;;;;5130428;28;20344;-87
2021/01/11 08:56:35;;;;;;;;;;;3.30;99.90;;;;;;5133960;27;19912;-85
2021/01/11 08:59:04;;;;;;;;;;;3.30;99.90;;;;;;5136169;27;19915;-86
2021/01/11 09:01:45;;;;;;;;;;;3.30;99.90;;;;;;5131158;27;19915;-86
2021/01/11 09:04:12;;;;;;;;;;;3.30;99.90;;;;;;5132859;27;20002;-86
2021/01/11 09:06:57;;;;;;;;;;;3.40;99.90;;;;;;5125652;27;20002;-86
2021/01/11 09:09:28;;;;;;;;;;;3.40;99.90;;;;;;5128638;27;19959;-86
2021/01/11 09:12:10;;;;;;;;;;;3.40;99.90;;;;;;5124800;27;20272;-86
2021/01/11 09:14:54;;;;;;;;;;;3.40;99.90;;;;;;5128006;27;19926;-87
2021/01/11 09:17:35;;;;;;;;;;;3.40;99.90;;;;;;5127531;27;20007;-86
2021/01/11 09:20:05;;;;;;;;;;;3.40;99.90;;;;;;5122718;27;19915;-86
2021/01/11 09:22:40;;;;;;;;;;;3.50;99.90;;;;;;5117101;28;19907;-86
2021/01/11 09:25:08;;;;;;;;;;;3.50;99.90;;;;;;5121592;28;19970;-87
2021/01/11 09:27:37;;;;;;;;;;;3.50;99.90;;;;;;5118420;28;19907;-86
2021/01/11 09:30:26;;;;;;;;;;;3.50;99.90;;;;;;5117087;28;19930;-85
2021/01/11 09:32:54;;;;;;;;;;;3.50;99.90;;;;;;5118444;28;19907;-86
2021/01/11 09:35:22;;;;;;;;;;;3.60;99.90;;;;;;5113569;28;19912;-85
2021/01/11 09:37:53;;;;;;;;;;;3.60;99.90;;;;;;5111082;28;19912;-86
2021/01/11 09:40:24;;;;;;;;;;;3.60;99.90;;;;;;5116301;28;20352;-87
2021/01/11 09:43:03;;;;;;;;;;;3.60;99.90;;;;;;5116076;28;19915;-86
2021/01/11 09:45:34;;;;;;;;;;;3.60;99.90;;;;;;5113960;28;19964;-86
2021/01/11 09:48:00;;;;;;;;;;;3.70;99.90;;;;;;5116268;28;19956;-87
2021/01/11 09:50:39;;;;;;;;;;;3.70;99.90;;;;;;5117643;28;19912;-87
2021/01/11 09:53:08;;;;;;;;;;;3.70;99.90;;;;;;5115006;28;19908;-87
2021/01/11 09:55:36;;;;;;;;;;;3.70;99.90;;;;;;5116332;28;19908;-86
2021/01/11 09:58:13;;;;;;;;;;;3.70;99.90;;;;;;5109882;28;19951;-87
2021/01/11 10:00:48;;;;;;;;;;;3.70;99.90;;;;;;5116408;28;19912;-87
2021/01/11 10:03:18;;;;;;;;;;;3.80;99.90;;;;;;5117653;28;19908;-87
2021/01/11 10:05:56;;;;;;;;;;;3.80;99.90;;;;;;5111619;28;19908;-86
2021/01/11 10:08:32;;;;;;;;;;;3.80;99.90;;;;;;5123809;27;19946;-86
2021/01/11 10:11:10;;;;;;;;;;;3.80;99.90;;;;;;5132797;27;19990;-87
2021/01/11 10:13:41;;;;;;;;;;;3.80;99.90;;;;;;5122604;27;19943;-87
2021/01/11 10:16:09;;;;;;;;;;;3.80;99.90;;;;;;5136820;27;19908;-86
2021/01/11 10:18:39;;;;;;;;;;;3.80;99.90;;;;;;5116011;28;19934;-87
2021/01/11 10:21:14;;;;;;;;;;;3.80;99.90;;;;;;5125413;27;19912;-88
2021/01/11 10:23:40;;;;;;;;;;;3.90;99.90;;;;;;5115610;28;20010;-87
2021/01/11 10:26:15;;;;;;;;;;;3.90;99.90;;;;;;5126782;27;19907;-87
2021/01/11 10:28:51;;;;;;;;;;;3.90;99.90;;;;;;5136924;27;19914;-86
2021/01/11 10:31:23;;;;;;;;;;;3.90;99.90;;;;;;5128684;27;19954;-87
2021/01/11 10:33:54;;;;;;;;;;;4.00;99.90;;;;;;5115581;28;19915;-88
2021/01/11 10:36:36;;;;;;;;;;;4.00;99.90;;;;;;5115681;28;19951;-87
2021/01/11 10:39:10;;;;;;;;;;;3.90;99.90;;;;;;5123556;27;19922;-87
2021/01/11 10:41:40;;;;;;;;;;;4.00;99.90;;;;;;5140005;27;19907;-87
2021/01/11 10:44:11;;;;;;;;;;;4.00;99.90;;;;;;5158760;27;20417;-87
2021/01/11 10:46:45;;;;;;;;;;;4.00;99.90;;;;;;5134574;27;19914;-88
2021/01/11 10:49:15;;;;;;;;;;;4.00;99.90;;;;;;5158298;27;19907;-86
2021/01/11 10:51:48;;;;;;;;;;;4.00;99.90;;;;;;5134748;27;19907;-87
2021/01/11 10:54:14;;;;;;;;;;;4.00;99.90;;;;;;5133658;27;19907;-87
2021/01/11 10:56:48;;;;;;;;;;;4.00;99.90;;;;;;5140044;27;19911;-86
2021/01/11 10:59:25;;;;;;;;;;;4.10;99.90;;;;;;5137094;27;19915;-86
2021/01/11 11:02:10;;;;;;;;;;;4.00;99.90;;;;;;5155952;27;19907;-87
2021/01/11 11:04:53;;;;;;;;;;;4.00;99.90;;;;;;5160878;27;20401;-87
2021/01/11 11:07:33;;;;;;;;;;;4.10;99.90;;;;;;5156214;27;20368;-86
2021/01/11 11:10:01;;;;;;;;;;;4.10;99.90;;;;;;5137406;27;19911;-87
2021/01/11 11:12:32;;;;;;;;;;;4.10;99.90;;;;;;5119518;27;19971;-86
2021/01/11 11:15:06;;;;;;;;;;;4.10;99.90;;;;;;5115733;27;19908;-87
2021/01/11 11:17:32;;;;;;;;;;;4.20;99.90;;;;;;5114563;27;19907;-87
2021/01/11 11:20:03;;;;;;;;;;;4.20;99.90;;;;;;5118158;27;19923;-86
2021/01/11 11:22:53;;;;;;;;;;;4.20;99.90;;;;;;5135018;27;19933;-87
2021/01/11 11:25:29;;;;;;;;;;;4.30;99.90;;;;;;5114330;27;19907;-87
2021/01/11 11:28:04;;;;;;;;;;;4.30;99.90;;;;;;5136507;27;19908;-87
2021/01/11 11:30:33;;;;;;;;;;;4.30;99.90;;;;;;5136309;27;19964;-86
2021/01/11 11:33:02;;;;;;;;;;;4.30;99.90;;;;;;5117527;27;19915;-87
2021/01/11 11:35:31;;;;;;;;;;;4.30;99.90;;;;;;5118143;27;19938;-88
2021/01/11 11:38:25;;;;;;;;;;;;;;;;;;;;;
2021/01/11 11:40:54;;;;;;;;;;;4.40;99.90;;;;;;5131626;27;20396;-87
2021/01/11 11:43:23;;;;;;;;;;;4.40;99.90;;;;;;5118478;27;20351;-87
2021/01/11 11:45:59;;;;;;;;;;;4.50;99.90;;;;;;5113704;27;19908;-89
2021/01/11 11:48:33;;;;;;;;;;;4.50;99.90;;;;;;5117932;27;19929;-87
2021/01/11 11:51:04;;;;;;;;;;;4.50;99.90;;;;;;5117747;27;20017;-86
2021/01/11 11:53:44;;;;;;;;;;;4.50;99.90;;;;;;5117217;27;20438;-87
2021/01/11 11:56:18;;;;;;;;;;;4.50;99.90;;;;;;5132469;27;19911;-87
2021/01/11 11:58:49;;;;;;;;;;;4.50;99.90;;;;;;5117951;27;19916;-87
2021/01/11 12:01:20;;;;;;;;;;;4.50;99.90;;;;;;5114193;27;20018;-88
2021/01/11 12:03:46;;;;;;;;;;;4.50;99.90;;;;;;5135749;27;20360;-88
2021/01/11 12:06:12;;;;;;;;;;;4.50;99.90;;;;;;5135273;27;19908;-87
2021/01/11 12:08:48;;;;;;;;;;;4.50;99.90;;;;;;5141322;27;19907;-88
2021/01/11 12:11:24;;;;;;;;;;;4.50;99.90;;;;;;5133132;27;19915;-87
2021/01/11 12:13:55;;;;;;;;;;;4.60;99.90;;;;;;5149182;27;20347;-87
2021/01/11 12:16:23;;;;;;;;;;;4.60;99.90;;;;;;5139134;27;20408;-88
2021/01/11 12:19:09;;;;;;;;;;;4.60;99.90;;;;;;5125876;27;19919;-88
2021/01/11 12:21:45;;;;;;;;;;;4.70;99.90;;;;;;5142160;27;19919;-88
2021/01/11 12:24:14;;;;;;;;;;;4.70;99.90;;;;;;5124957;27;19915;-88
2021/01/11 12:26:47;;;;;;;;;;;4.70;99.90;;;;;;5112140;27;19920;-88
2021/01/11 12:29:38;;;;;;;;;;;4.70;99.90;;;;;;5042339;28;19999;-88
2021/01/11 12:32:10;;;;;;;;;;;4.70;99.90;;;;;;5039587;28;19909;-88
2021/01/11 12:34:42;;;;;;;;;;;4.70;99.90;;;;;;5052092;28;19920;-88
2021/01/11 12:37:18;;;;;;;;;;;4.80;99.90;;;;;;5034831;28;19959;-88
2021/01/11 12:39:49;;;;;;;;;;;4.80;99.90;;;;;;5031572;28;19921;-88
2021/01/11 12:42:17;;;;;;;;;;;4.80;99.90;;;;;;5032474;28;20400;-88
2021/01/11 12:44:47;;;;;;;;;;;4.80;99.90;;;;;;5027704;28;19917;-88
2021/01/11 12:47:18;;;;;;;;;;;4.80;99.90;;;;;;5033542;28;19925;-89
2021/01/11 12:49:50;;;;;;;;;;;4.80;99.90;;;;;;5034761;28;20744;-89
2021/01/11 12:52:21;;;;;;;;;;;4.80;99.90;;;;;;5022082;28;19913;-90
2021/01/11 12:54:49;;;;;;;;;;;4.80;99.90;;;;;;5013620;28;19910;-89
2021/01/11 12:57:19;;;;;;;;;;;4.80;99.90;;;;;;5016908;28;19959;-88
2021/01/11 12:59:51;;;;;;;;;;;4.80;99.90;;;;;;5035048;28;19973;-90
2021/01/11 13:02:25;;;;;;;;;;;4.80;99.90;;;;;;5075214;28;19912;-88
2021/01/11 13:05:06;;;;;;;;;;;4.90;99.90;;;;;;5076352;28;20292;-88
2021/01/11 13:07:35;;;;;;;;;;;4.90;99.90;;;;;;5059005;28;19912;-89
2021/01/11 13:10:09;;;;;;;;;;;4.80;99.90;;;;;;5069499;28;19908;-89
2021/01/11 13:12:43;;;;;;;;;;;4.80;99.90;;;;;;5073151;28;19912;-90
2021/01/11 13:15:12;;;;;;;;;;;4.80;99.90;;;;;;5069422;28;19908;-89
2021/01/11 13:17:45;;;;;;;;;;;4.80;99.90;;;;;;5070426;28;19990;-89
2021/01/11 13:20:21;;;;;;;;;;;4.80;99.90;;;;;;5072523;28;20388;-89
2021/01/11 13:22:47;;;;;;;;;;;4.80;99.90;;;;;;5087481;28;19907;-88
2021/01/11 13:25:16;;;;;;;;;;;4.80;99.90;;;;;;5135648;28;19915;-88
2021/01/11 13:27:46;;;;;;;;;;;4.80;99.90;;;;;;5116924;28;19912;-88
2021/01/11 13:30:13;;;;;;;;;;;4.80;99.90;;;;;;5119947;28;19913;-88
2021/01/11 13:32:42;;;;;;;;;;;4.80;99.90;;;;;;5117558;27;19950;-88
2021/01/11 13:35:13;;;;;;;;;;;4.80;99.90;;;;;;5130595;27;20001;-89
2021/01/11 13:37:42;;;;;;;;;;;4.80;99.90;;;;;;5134141;27;19911;-88
2021/01/11 13:40:13;;;;;;;;;;;4.80;99.90;;;;;;5074660;28;19924;-89
2021/01/11 13:42:47;;;;;;;;;;;4.80;99.90;;;;;;5077919;28;19908;-89
2021/01/11 13:45:41;;;;;;;;;;;4.80;99.90;;;;;;5094777;28;19916;-89
2021/01/11 13:48:12;;;;;;;;;;;4.90;99.90;;;;;;5078587;28;19908;-87
2021/01/11 13:51:05;;;;;;;;;;;4.80;99.90;;;;;;5077107;28;19912;-87
2021/01/11 13:53:36;;;;;;;;;;;4.90;99.90;;;;;;5068594;28;19909;-87
2021/01/11 13:56:04;;;;;;;;;;;4.90;99.90;;;;;;5058292;28;19942;-88
2021/01/11 13:58:35;;;;;;;;;;;4.90;99.90;;;;;;5058523;28;19920;-87
2021/01/11 14:01:04;;;;;;;;;;;4.90;99.90;;;;;;5078222;28;19959;-88
2021/01/11 14:03:30;;;;;;;;;;;4.90;99.90;;;;;;5077740;27;19942;-87
2021/01/11 14:05:57;;;;;;;;;;;4.90;99.90;;;;;;5137481;27;19907;-90
2021/01/11 14:08:33;;;;;;;;;;;4.80;99.90;;;;;;5138104;27;20344;-89
2021/01/11 14:11:02;;;;;;;;;;;4.90;99.90;;;;;;5116930;27;19918;-87
2021/01/11 14:13:33;;;;;;;;;;;4.90;99.90;;;;;;5137937;27;20344;-89
2021/01/11 14:16:01;;;;;;;;;;;4.90;99.90;;;;;;5114882;27;19908;-87
2021/01/11 14:18:50;;;;;;;;;;;4.90;99.90;;;;;;5114969;27;19939;-87
2021/01/11 14:21:19;;;;;;;;;;;4.90;99.90;;;;;;5116403;27;19915;-88
2021/01/11 14:23:52;;;;;;;;;;;4.90;99.90;;;;;;5114128;27;19912;-88
2021/01/11 14:26:22;;;;;;;;;;;5.00;99.90;;;;;;5118651;27;19977;-89
2021/01/11 14:28:52;;;;;;;;;;;5.00;99.90;;;;;;5142012;27;20006;-89
2021/01/11 14:31:24;;;;;;;;;;;5.00;99.90;;;;;;5122482;27;19907;-88
2021/01/11 14:33:56;;;;;;;;;;;5.00;99.90;;;;;;5112082;28;19916;-88
2021/01/11 14:36:34;;;;;;;;;;;5.00;99.90;;;;;;5108040;28;19911;-89
2021/01/11 14:39:04;;;;;;;;;;;5.00;99.90;;;;;;5094183;28;19920;-88
2021/01/11 14:41:41;;;;;;;;;;;5.00;99.90;;;;;;5033895;28;19924;-89
2021/01/11 14:44:10;;;;;;;;;;;5.10;99.90;;;;;;5017330;28;19913;-89
2021/01/11 14:46:37;;;;;;;;;;;5.10;99.90;;;;;;5034802;28;19921;-89
2021/01/11 14:49:14;;;;;;;;;;;5.20;99.90;;;;;;5017227;28;19917;-90
2021/01/11 14:51:53;;;;;;;;;;;5.20;99.90;;;;;;5033875;28;19917;-90
2021/01/11 14:54:24;;;;;;;;;;;5.20;99.90;;;;;;5016613;28;20038;-89
2021/01/11 14:56:54;;;;;;;;;;;5.30;99.90;;;;;;5031519;28;19960;-90
2021/01/11 14:59:25;;;;;;;;;;;5.30;99.90;;;;;;5017784;28;19921;-90